sensor_id;sensor_type;location;lat;lon;timestamp;P1;durP1;ratioP1;P2;durP2;ratioP2
36817;SDS011;22761;51.542;16.450;2022-10-26T00:01:10;6.63;;;4.87;;
36817;SDS011;22761;51.542;16.450;2022-10-26T00:03:41;8.77;;;5.40;;
36817;SDS011;22761;51.542;16.450;2022-10-26T00:06:12;9.13;;;5.37;;
36817;SDS011;22761;51.542;16.450;2022-10-26T00:08:45;6.13;;;4.07;;
36817;SDS011;22761;51.542;16.450;2022-10-26T00:11:13;8.90;;;5.17;;
36817;SDS011;22761;51.542;16.450;2022-10-26T00:13:40;8.63;;;5.40;;
36817;SDS011;22761;51.542;16.450;2022-10-26T00:18:40;8.67;;;5.33;;
36817;SDS011;22761;51.542;16.450;2022-10-26T00:21:08;10.23;;;5.53;;
36817;SDS011;22761;51.542;16.450;2022-10-26T00:23:38;8.97;;;4.90;;
36817;SDS011;22761;51.542;16.450;2022-10-26T00:26:05;7.63;;;5.13;;
36817;SDS011;22761;51.542;16.450;2022-10-26T00:28:33;9.03;;;5.53;;
36817;SDS011;22761;51.542;16.450;2022-10-26T00:31:01;9.50;;;5.73;;
36817;SDS011;22761;51.542;16.450;2022-10-26T00:33:30;17.67;;;8.93;;
36817;SDS011;22761;51.542;16.450;2022-10-26T00:35:58;10.43;;;6.93;;
36817;SDS011;22761;51.542;16.450;2022-10-26T00:38:25;8.87;;;6.13;;
36817;SDS011;22761;51.542;16.450;2022-10-26T00:40:53;10.10;;;5.80;;
36817;SDS011;22761;51.542;16.450;2022-10-26T00:45:56;8.67;;;5.40;;
36817;SDS011;22761;51.542;16.450;2022-10-26T00:48:25;8.00;;;4.80;;
36817;SDS011;22761;51.542;16.450;2022-10-26T00:51:09;8.20;;;5.33;;
36817;SDS011;22761;51.542;16.450;2022-10-26T00:53:36;6.43;;;4.97;;
36817;SDS011;22761;51.542;16.450;2022-10-26T00:56:05;5.03;;;4.20;;
36817;SDS011;22761;51.542;16.450;2022-10-26T00:58:32;9.00;;;5.50;;
36817;SDS011;22761;51.542;16.450;2022-10-26T01:01:01;5.97;;;5.17;;
36817;SDS011;22761;51.542;16.450;2022-10-26T01:03:28;8.80;;;5.53;;
36817;SDS011;22761;51.542;16.450;2022-10-26T01:05:57;10.53;;;4.90;;
36817;SDS011;22761;51.542;16.450;2022-10-26T01:08:25;8.67;;;5.97;;
36817;SDS011;22761;51.542;16.450;2022-10-26T01:10:54;12.17;;;6.00;;
36817;SDS011;22761;51.542;16.450;2022-10-26T01:13:24;9.50;;;6.35;;
36817;SDS011;22761;51.542;16.450;2022-10-26T01:22:14;6.93;;;5.00;;
36817;SDS011;22761;51.542;16.450;2022-10-26T01:28:15;6.67;;;4.30;;
36817;SDS011;22761;51.542;16.450;2022-10-26T01:30:47;7.33;;;4.90;;
36817;SDS011;22761;51.542;16.450;2022-10-26T01:39:15;7.50;;;4.77;;
36817;SDS011;22761;51.542;16.450;2022-10-26T01:41:49;11.20;;;5.43;;
36817;SDS011;22761;51.542;16.450;2022-10-26T01:44:23;6.67;;;5.00;;
36817;SDS011;22761;51.542;16.450;2022-10-26T01:46:54;9.27;;;6.07;;
36817;SDS011;22761;51.542;16.450;2022-10-26T01:49:25;9.18;;;5.37;;
36817;SDS011;22761;51.542;16.450;2022-10-26T01:51:56;7.70;;;5.07;;
36817;SDS011;22761;51.542;16.450;2022-10-26T01:54:23;7.90;;;5.33;;
36817;SDS011;22761;51.542;16.450;2022-10-26T01:56:51;5.67;;;4.87;;
36817;SDS011;22761;51.542;16.450;2022-10-26T02:08:13;7.77;;;5.37;;
36817;SDS011;22761;51.542;16.450;2022-10-26T02:11:09;8.23;;;5.33;;
36817;SDS011;22761;51.542;16.450;2022-10-26T02:16:27;7.90;;;5.07;;
36817;SDS011;22761;51.542;16.450;2022-10-26T02:22:27;7.83;;;5.40;;
36817;SDS011;22761;51.542;16.450;2022-10-26T02:25:03;10.23;;;6.03;;
36817;SDS011;22761;51.542;16.450;2022-10-26T02:27:35;7.97;;;5.87;;
36817;SDS011;22761;51.542;16.450;2022-10-26T02:30:09;9.27;;;5.63;;
36817;SDS011;22761;51.542;16.450;2022-10-26T02:32:39;10.60;;;5.47;;
36817;SDS011;22761;51.542;16.450;2022-10-26T02:35:10;8.50;;;5.50;;
36817;SDS011;22761;51.542;16.450;2022-10-26T02:37:40;9.28;;;6.05;;
36817;SDS011;22761;51.542;16.450;2022-10-26T02:40:10;9.33;;;6.23;;
36817;SDS011;22761;51.542;16.450;2022-10-26T02:42:41;8.30;;;6.00;;
36817;SDS011;22761;51.542;16.450;2022-10-26T02:45:12;9.43;;;6.53;;
36817;SDS011;22761;51.542;16.450;2022-10-26T02:47:44;7.27;;;5.60;;
36817;SDS011;22761;51.542;16.450;2022-10-26T02:50:12;7.73;;;5.57;;
36817;SDS011;22761;51.542;16.450;2022-10-26T02:52:50;9.13;;;5.80;;
36817;SDS011;22761;51.542;16.450;2022-10-26T02:55:29;5.57;;;4.97;;
36817;SDS011;22761;51.542;16.450;2022-10-26T02:58:00;7.10;;;6.00;;
36817;SDS011;22761;51.542;16.450;2022-10-26T03:00:27;7.73;;;5.13;;
36817;SDS011;22761;51.542;16.450;2022-10-26T03:02:57;7.13;;;4.70;;
36817;SDS011;22761;51.542;16.450;2022-10-26T03:05:27;6.30;;;4.60;;
36817;SDS011;22761;51.542;16.450;2022-10-26T03:08:01;6.73;;;4.57;;
36817;SDS011;22761;51.542;16.450;2022-10-26T03:10:29;6.83;;;4.70;;
36817;SDS011;22761;51.542;16.450;2022-10-26T03:12:59;5.78;;;4.22;;
36817;SDS011;22761;51.542;16.450;2022-10-26T03:15:26;5.50;;;4.40;;
36817;SDS011;22761;51.542;16.450;2022-10-26T03:17:54;5.43;;;4.23;;
36817;SDS011;22761;51.542;16.450;2022-10-26T03:20:21;7.20;;;3.70;;
36817;SDS011;22761;51.542;16.450;2022-10-26T03:22:48;6.47;;;4.00;;
36817;SDS011;22761;51.542;16.450;2022-10-26T03:25:15;6.43;;;4.10;;
36817;SDS011;22761;51.542;16.450;2022-10-26T03:27:42;5.10;;;3.70;;
36817;SDS011;22761;51.542;16.450;2022-10-26T03:30:10;5.20;;;3.73;;
36817;SDS011;22761;51.542;16.450;2022-10-26T03:32:37;6.40;;;3.87;;
36817;SDS011;22761;51.542;16.450;2022-10-26T03:35:05;8.57;;;4.10;;
36817;SDS011;22761;51.542;16.450;2022-10-26T03:37:33;6.37;;;4.23;;
36817;SDS011;22761;51.542;16.450;2022-10-26T03:40:00;12.30;;;3.73;;
36817;SDS011;22761;51.542;16.450;2022-10-26T03:42:28;5.43;;;4.10;;
36817;SDS011;22761;51.542;16.450;2022-10-26T03:45:02;6.47;;;4.57;;
36817;SDS011;22761;51.542;16.450;2022-10-26T03:47:31;7.78;;;4.45;;
36817;SDS011;22761;51.542;16.450;2022-10-26T03:49:59;6.40;;;4.80;;
36817;SDS011;22761;51.542;16.450;2022-10-26T03:52:26;6.40;;;4.00;;
36817;SDS011;22761;51.542;16.450;2022-10-26T03:54:53;5.20;;;3.90;;
36817;SDS011;22761;51.542;16.450;2022-10-26T03:57:20;8.40;;;3.70;;
36817;SDS011;22761;51.542;16.450;2022-10-26T03:59:47;6.17;;;4.13;;
36817;SDS011;22761;51.542;16.450;2022-10-26T04:02:15;5.97;;;4.10;;
36817;SDS011;22761;51.542;16.450;2022-10-26T04:04:42;7.50;;;4.67;;
36817;SDS011;22761;51.542;16.450;2022-10-26T04:07:10;7.00;;;4.20;;
36817;SDS011;22761;51.542;16.450;2022-10-26T04:09:37;4.93;;;3.70;;
36817;SDS011;22761;51.542;16.450;2022-10-26T04:12:05;5.33;;;4.20;;
36817;SDS011;22761;51.542;16.450;2022-10-26T04:14:33;5.83;;;4.80;;
36817;SDS011;22761;51.542;16.450;2022-10-26T04:17:00;5.30;;;4.30;;
36817;SDS011;22761;51.542;16.450;2022-10-26T04:19:27;5.87;;;4.40;;
36817;SDS011;22761;51.542;16.450;2022-10-26T04:21:55;5.67;;;4.40;;
36817;SDS011;22761;51.542;16.450;2022-10-26T04:24:22;7.63;;;4.40;;
36817;SDS011;22761;51.542;16.450;2022-10-26T04:26:49;5.47;;;3.83;;
36817;SDS011;22761;51.542;16.450;2022-10-26T04:29:16;6.53;;;5.37;;
36817;SDS011;22761;51.542;16.450;2022-10-26T04:31:44;7.57;;;4.93;;
36817;SDS011;22761;51.542;16.450;2022-10-26T04:34:11;7.17;;;5.60;;
36817;SDS011;22761;51.542;16.450;2022-10-26T04:36:38;6.43;;;5.10;;
36817;SDS011;22761;51.542;16.450;2022-10-26T04:39:05;7.40;;;4.83;;
36817;SDS011;22761;51.542;16.450;2022-10-26T04:41:33;6.27;;;4.47;;
36817;SDS011;22761;51.542;16.450;2022-10-26T04:44:00;9.10;;;5.13;;
36817;SDS011;22761;51.542;16.450;2022-10-26T04:46:28;7.53;;;4.90;;
36817;SDS011;22761;51.542;16.450;2022-10-26T04:48:55;6.70;;;4.77;;
36817;SDS011;22761;51.542;16.450;2022-10-26T04:51:22;5.97;;;4.57;;
36817;SDS011;22761;51.542;16.450;2022-10-26T04:53:50;6.07;;;4.63;;
36817;SDS011;22761;51.542;16.450;2022-10-26T04:56:23;6.60;;;4.63;;
36817;SDS011;22761;51.542;16.450;2022-10-26T04:58:52;6.40;;;4.70;;
36817;SDS011;22761;51.542;16.450;2022-10-26T05:01:20;6.28;;;4.60;;
36817;SDS011;22761;51.542;16.450;2022-10-26T05:03:48;7.43;;;5.17;;
36817;SDS011;22761;51.542;16.450;2022-10-26T05:06:16;7.63;;;5.07;;
36817;SDS011;22761;51.542;16.450;2022-10-26T05:08:45;8.73;;;5.47;;
36817;SDS011;22761;51.542;16.450;2022-10-26T05:11:12;9.63;;;5.23;;
36817;SDS011;22761;51.542;16.450;2022-10-26T05:13:40;8.47;;;5.40;;
36817;SDS011;22761;51.542;16.450;2022-10-26T05:16:07;9.03;;;5.03;;
36817;SDS011;22761;51.542;16.450;2022-10-26T05:18:34;8.17;;;5.57;;
36817;SDS011;22761;51.542;16.450;2022-10-26T05:21:01;9.10;;;5.80;;
36817;SDS011;22761;51.542;16.450;2022-10-26T05:23:29;8.43;;;5.67;;
36817;SDS011;22761;51.542;16.450;2022-10-26T05:25:56;8.50;;;5.90;;
36817;SDS011;22761;51.542;16.450;2022-10-26T05:28:23;8.23;;;6.03;;
36817;SDS011;22761;51.542;16.450;2022-10-26T05:30:50;9.40;;;6.40;;
36817;SDS011;22761;51.542;16.450;2022-10-26T05:33:17;7.07;;;5.10;;
36817;SDS011;22761;51.542;16.450;2022-10-26T05:35:44;7.10;;;5.40;;
36817;SDS011;22761;51.542;16.450;2022-10-26T05:38:12;8.07;;;5.27;;
36817;SDS011;22761;51.542;16.450;2022-10-26T05:40:46;6.53;;;5.03;;
36817;SDS011;22761;51.542;16.450;2022-10-26T05:43:14;6.27;;;4.80;;
36817;SDS011;22761;51.542;16.450;2022-10-26T05:45:43;7.20;;;5.20;;
36817;SDS011;22761;51.542;16.450;2022-10-26T05:48:10;6.60;;;5.13;;
36817;SDS011;22761;51.542;16.450;2022-10-26T05:50:38;7.07;;;4.70;;
36817;SDS011;22761;51.542;16.450;2022-10-26T05:53:05;7.07;;;5.13;;
36817;SDS011;22761;51.542;16.450;2022-10-26T05:55:32;7.17;;;5.17;;
36817;SDS011;22761;51.542;16.450;2022-10-26T05:58:00;7.70;;;5.60;;
36817;SDS011;22761;51.542;16.450;2022-10-26T06:00:29;12.07;;;6.80;;
36817;SDS011;22761;51.542;16.450;2022-10-26T06:03:06;8.90;;;7.20;;
36817;SDS011;22761;51.542;16.450;2022-10-26T06:05:51;10.83;;;7.43;;
36817;SDS011;22761;51.542;16.450;2022-10-26T06:08:22;10.70;;;7.57;;
36817;SDS011;22761;51.542;16.450;2022-10-26T06:13:19;9.37;;;6.97;;
36817;SDS011;22761;51.542;16.450;2022-10-26T06:21:34;10.17;;;7.70;;
36817;SDS011;22761;51.542;16.450;2022-10-26T06:24:23;9.53;;;7.73;;
36817;SDS011;22761;51.542;16.450;2022-10-26T06:27:25;11.40;;;7.50;;
36817;SDS011;22761;51.542;16.450;2022-10-26T06:30:26;10.87;;;7.20;;
36817;SDS011;22761;51.542;16.450;2022-10-26T06:32:54;9.43;;;7.07;;
36817;SDS011;22761;51.542;16.450;2022-10-26T06:38:18;12.67;;;8.03;;
36817;SDS011;22761;51.542;16.450;2022-10-26T06:40:44;9.20;;;6.93;;
36817;SDS011;22761;51.542;16.450;2022-10-26T06:43:19;10.57;;;8.03;;
36817;SDS011;22761;51.542;16.450;2022-10-26T06:49:21;9.57;;;7.40;;
36817;SDS011;22761;51.542;16.450;2022-10-26T06:51:29;10.43;;;8.10;;
36817;SDS011;22761;51.542;16.450;2022-10-26T06:54:22;10.90;;;8.35;;
36817;SDS011;22761;51.542;16.450;2022-10-26T06:56:34;12.67;;;8.53;;
36817;SDS011;22761;51.542;16.450;2022-10-26T06:59:12;10.73;;;8.80;;
36817;SDS011;22761;51.542;16.450;2022-10-26T07:01:59;12.63;;;8.63;;
36817;SDS011;22761;51.542;16.450;2022-10-26T07:04:26;11.97;;;8.77;;
36817;SDS011;22761;51.542;16.450;2022-10-26T07:06:53;11.90;;;8.63;;
36817;SDS011;22761;51.542;16.450;2022-10-26T07:09:22;12.13;;;8.67;;
36817;SDS011;22761;51.542;16.450;2022-10-26T07:11:49;10.13;;;8.10;;
36817;SDS011;22761;51.542;16.450;2022-10-26T07:14:17;12.93;;;8.47;;
36817;SDS011;22761;51.542;16.450;2022-10-26T07:16:45;12.57;;;8.37;;
36817;SDS011;22761;51.542;16.450;2022-10-26T07:19:13;11.43;;;7.27;;
36817;SDS011;22761;51.542;16.450;2022-10-26T07:21:40;13.23;;;7.50;;
36817;SDS011;22761;51.542;16.450;2022-10-26T07:24:07;11.80;;;7.47;;
36817;SDS011;22761;51.542;16.450;2022-10-26T07:26:35;9.33;;;7.57;;
36817;SDS011;22761;51.542;16.450;2022-10-26T07:29:03;10.07;;;7.13;;
36817;SDS011;22761;51.542;16.450;2022-10-26T07:31:30;11.77;;;7.83;;
36817;SDS011;22761;51.542;16.450;2022-10-26T07:33:57;7.63;;;6.60;;
36817;SDS011;22761;51.542;16.450;2022-10-26T07:36:24;12.53;;;7.67;;
36817;SDS011;22761;51.542;16.450;2022-10-26T07:38:53;10.13;;;7.20;;
36817;SDS011;22761;51.542;16.450;2022-10-26T07:41:20;9.57;;;6.73;;
36817;SDS011;22761;51.542;16.450;2022-10-26T07:43:48;7.33;;;6.60;;
36817;SDS011;22761;51.542;16.450;2022-10-26T07:46:16;9.20;;;6.97;;
36817;SDS011;22761;51.542;16.450;2022-10-26T07:48:43;7.37;;;5.90;;
36817;SDS011;22761;51.542;16.450;2022-10-26T07:51:11;9.53;;;6.57;;
36817;SDS011;22761;51.542;16.450;2022-10-26T07:53:38;8.37;;;7.00;;
36817;SDS011;22761;51.542;16.450;2022-10-26T07:56:06;9.40;;;6.90;;
36817;SDS011;22761;51.542;16.450;2022-10-26T07:58:35;8.80;;;6.30;;
36817;SDS011;22761;51.542;16.450;2022-10-26T08:01:07;8.63;;;6.80;;
36817;SDS011;22761;51.542;16.450;2022-10-26T08:03:36;13.13;;;6.67;;
36817;SDS011;22761;51.542;16.450;2022-10-26T08:06:04;9.10;;;6.80;;
36817;SDS011;22761;51.542;16.450;2022-10-26T08:08:32;8.53;;;6.50;;
36817;SDS011;22761;51.542;16.450;2022-10-26T08:11:00;8.77;;;6.90;;
36817;SDS011;22761;51.542;16.450;2022-10-26T08:13:28;9.60;;;6.60;;
36817;SDS011;22761;51.542;16.450;2022-10-26T08:15:58;11.53;;;6.40;;
36817;SDS011;22761;51.542;16.450;2022-10-26T08:18:27;8.03;;;5.73;;
36817;SDS011;22761;51.542;16.450;2022-10-26T08:20:59;7.43;;;5.53;;
36817;SDS011;22761;51.542;16.450;2022-10-26T08:23:29;6.07;;;4.77;;
36817;SDS011;22761;51.542;16.450;2022-10-26T08:25:58;10.30;;;5.60;;
36817;SDS011;22761;51.542;16.450;2022-10-26T08:28:26;5.90;;;4.97;;
36817;SDS011;22761;51.542;16.450;2022-10-26T08:30:55;5.50;;;4.80;;
36817;SDS011;22761;51.542;16.450;2022-10-26T08:33:22;6.40;;;4.80;;
36817;SDS011;22761;51.542;16.450;2022-10-26T08:35:57;6.67;;;4.75;;
36817;SDS011;22761;51.542;16.450;2022-10-26T08:38:27;6.95;;;4.60;;
36817;SDS011;22761;51.542;16.450;2022-10-26T08:40:56;5.53;;;4.03;;
36817;SDS011;22761;51.542;16.450;2022-10-26T08:46:16;6.70;;;4.85;;
36817;SDS011;22761;51.542;16.450;2022-10-26T08:48:55;6.97;;;4.20;;
36817;SDS011;22761;51.542;16.450;2022-10-26T08:51:28;5.37;;;3.90;;
36817;SDS011;22761;51.542;16.450;2022-10-26T08:54:11;6.20;;;3.80;;
36817;SDS011;22761;51.542;16.450;2022-10-26T08:56:43;6.90;;;4.08;;
36817;SDS011;22761;51.542;16.450;2022-10-26T08:59:30;5.62;;;3.92;;
36817;SDS011;22761;51.542;16.450;2022-10-26T09:02:16;5.35;;;3.80;;
36817;SDS011;22761;51.542;16.450;2022-10-26T09:04:44;5.97;;;3.87;;
36817;SDS011;22761;51.542;16.450;2022-10-26T09:07:18;6.95;;;3.77;;
36817;SDS011;22761;51.542;16.450;2022-10-26T09:10:09;3.98;;;3.00;;
36817;SDS011;22761;51.542;16.450;2022-10-26T09:18:46;4.72;;;3.20;;
36817;SDS011;22761;51.542;16.450;2022-10-26T09:24:31;6.97;;;3.95;;
36817;SDS011;22761;51.542;16.450;2022-10-26T09:29:42;7.60;;;4.08;;
36817;SDS011;22761;51.542;16.450;2022-10-26T09:32:55;4.95;;;4.00;;
36817;SDS011;22761;51.542;16.450;2022-10-26T09:37:23;4.28;;;3.27;;
36817;SDS011;22761;51.542;16.450;2022-10-26T09:39:59;7.87;;;3.58;;
36817;SDS011;22761;51.542;16.450;2022-10-26T09:42:35;6.15;;;3.47;;
36817;SDS011;22761;51.542;16.450;2022-10-26T09:45:21;5.55;;;3.25;;
36817;SDS011;22761;51.542;16.450;2022-10-26T09:47:55;5.87;;;3.10;;
36817;SDS011;22761;51.542;16.450;2022-10-26T09:53:03;5.12;;;2.95;;
36817;SDS011;22761;51.542;16.450;2022-10-26T09:55:30;6.08;;;3.10;;
36817;SDS011;22761;51.542;16.450;2022-10-26T09:58:02;6.10;;;3.05;;
36817;SDS011;22761;51.542;16.450;2022-10-26T10:00:32;6.70;;;3.10;;
36817;SDS011;22761;51.542;16.450;2022-10-26T10:03:01;6.55;;;3.33;;
36817;SDS011;22761;51.542;16.450;2022-10-26T10:05:30;5.95;;;3.37;;
36817;SDS011;22761;51.542;16.450;2022-10-26T10:08:08;6.97;;;3.20;;
36817;SDS011;22761;51.542;16.450;2022-10-26T10:13:30;6.53;;;2.98;;
36817;SDS011;22761;51.542;16.450;2022-10-26T10:18:35;4.85;;;2.52;;
36817;SDS011;22761;51.542;16.450;2022-10-26T10:21:05;4.78;;;2.47;;
36817;SDS011;22761;51.542;16.450;2022-10-26T10:28:36;4.35;;;2.17;;
36817;SDS011;22761;51.542;16.450;2022-10-26T10:31:18;5.17;;;2.40;;
36817;SDS011;22761;51.542;16.450;2022-10-26T10:33:54;4.03;;;2.20;;
36817;SDS011;22761;51.542;16.450;2022-10-26T10:36:22;4.92;;;2.45;;
36817;SDS011;22761;51.542;16.450;2022-10-26T10:38:54;4.92;;;2.15;;
36817;SDS011;22761;51.542;16.450;2022-10-26T10:41:29;3.55;;;1.98;;
36817;SDS011;22761;51.542;16.450;2022-10-26T10:44:06;3.87;;;1.82;;
36817;SDS011;22761;51.542;16.450;2022-10-26T10:46:47;5.50;;;1.87;;
36817;SDS011;22761;51.542;16.450;2022-10-26T10:49:20;4.40;;;2.10;;
36817;SDS011;22761;51.542;16.450;2022-10-26T10:51:49;4.17;;;1.77;;
36817;SDS011;22761;51.542;16.450;2022-10-26T10:54:24;3.52;;;2.25;;
36817;SDS011;22761;51.542;16.450;2022-10-26T10:57:02;5.25;;;1.82;;
36817;SDS011;22761;51.542;16.450;2022-10-26T11:02:41;4.35;;;1.65;;
36817;SDS011;22761;51.542;16.450;2022-10-26T11:05:21;2.52;;;1.60;;
36817;SDS011;22761;51.542;16.450;2022-10-26T11:10:48;4.95;;;1.72;;
36817;SDS011;22761;51.542;16.450;2022-10-26T11:16:19;2.70;;;1.70;;
36817;SDS011;22761;51.542;16.450;2022-10-26T11:19:34;3.00;;;1.70;;
36817;SDS011;22761;51.542;16.450;2022-10-26T11:21:34;3.62;;;1.57;;
36817;SDS011;22761;51.542;16.450;2022-10-26T11:41:09;2.87;;;1.60;;
36817;SDS011;22761;51.542;16.450;2022-10-26T11:46:29;5.22;;;1.75;;
36817;SDS011;22761;51.542;16.450;2022-10-26T11:49:16;5.40;;;2.02;;
36817;SDS011;22761;51.542;16.450;2022-10-26T11:57:11;4.28;;;1.60;;
36817;SDS011;22761;51.542;16.450;2022-10-26T11:59:48;2.90;;;1.42;;
36817;SDS011;22761;51.542;16.450;2022-10-26T12:02:18;4.55;;;1.40;;
36817;SDS011;22761;51.542;16.450;2022-10-26T12:07:39;5.75;;;1.80;;
36817;SDS011;22761;51.542;16.450;2022-10-26T12:10:06;2.55;;;1.40;;
36817;SDS011;22761;51.542;16.450;2022-10-26T12:12:49;4.25;;;1.67;;
36817;SDS011;22761;51.542;16.450;2022-10-26T12:15:41;4.03;;;1.67;;
36817;SDS011;22761;51.542;16.450;2022-10-26T12:21:10;5.30;;;1.32;;
36817;SDS011;22761;51.542;16.450;2022-10-26T12:24:01;6.70;;;1.50;;
36817;SDS011;22761;51.542;16.450;2022-10-26T12:34:21;3.90;;;1.40;;
36817;SDS011;22761;51.542;16.450;2022-10-26T12:39:34;4.45;;;1.47;;
36817;SDS011;22761;51.542;16.450;2022-10-26T12:45:01;5.00;;;1.22;;
36817;SDS011;22761;51.542;16.450;2022-10-26T12:50:00;4.35;;;1.75;;
36817;SDS011;22761;51.542;16.450;2022-10-26T12:52:53;2.45;;;1.37;;
36817;SDS011;22761;51.542;16.450;2022-10-26T13:04:12;3.90;;;1.30;;
36817;SDS011;22761;51.542;16.450;2022-10-26T13:10:01;3.37;;;1.60;;
36817;SDS011;22761;51.542;16.450;2022-10-26T13:12:38;3.90;;;1.57;;
36817;SDS011;22761;51.542;16.450;2022-10-26T13:21:04;2.80;;;1.62;;
36817;SDS011;22761;51.542;16.450;2022-10-26T13:23:39;5.20;;;2.00;;
36817;SDS011;22761;51.542;16.450;2022-10-26T13:26:16;14.65;;;8.78;;
36817;SDS011;22761;51.542;16.450;2022-10-26T13:34:11;3.85;;;1.90;;
36817;SDS011;22761;51.542;16.450;2022-10-26T13:39:30;4.72;;;1.90;;
36817;SDS011;22761;51.542;16.450;2022-10-26T13:42:06;5.55;;;2.40;;
36817;SDS011;22761;51.542;16.450;2022-10-26T13:44:41;3.12;;;1.72;;
36817;SDS011;22761;51.542;16.450;2022-10-26T13:47:27;6.08;;;3.30;;
36817;SDS011;22761;51.542;16.450;2022-10-26T13:49:59;3.00;;;1.95;;
36817;SDS011;22761;51.542;16.450;2022-10-26T13:52:41;2.50;;;1.60;;
36817;SDS011;22761;51.542;16.450;2022-10-26T13:55:19;6.05;;;2.10;;
36817;SDS011;22761;51.542;16.450;2022-10-26T14:03:41;4.80;;;1.62;;
36817;SDS011;22761;51.542;16.450;2022-10-26T14:06:12;3.80;;;2.10;;
36817;SDS011;22761;51.542;16.450;2022-10-26T14:08:55;3.70;;;1.92;;
36817;SDS011;22761;51.542;16.450;2022-10-26T14:11:35;4.05;;;2.15;;
36817;SDS011;22761;51.542;16.450;2022-10-26T14:14:34;6.17;;;1.80;;
36817;SDS011;22761;51.542;16.450;2022-10-26T14:17:04;3.50;;;1.98;;
36817;SDS011;22761;51.542;16.450;2022-10-26T14:19:32;5.65;;;2.40;;
36817;SDS011;22761;51.542;16.450;2022-10-26T14:22:03;4.87;;;2.95;;
36817;SDS011;22761;51.542;16.450;2022-10-26T14:24:32;3.45;;;2.30;;
36817;SDS011;22761;51.542;16.450;2022-10-26T14:27:19;4.78;;;1.82;;
36817;SDS011;22761;51.542;16.450;2022-10-26T14:29:54;2.10;;;1.70;;
36817;SDS011;22761;51.542;16.450;2022-10-26T14:32:20;5.25;;;1.85;;
36817;SDS011;22761;51.542;16.450;2022-10-26T14:34:58;4.55;;;2.02;;
36817;SDS011;22761;51.542;16.450;2022-10-26T14:37:39;8.23;;;2.00;;
36817;SDS011;22761;51.542;16.450;2022-10-26T14:40:22;3.12;;;1.75;;
36817;SDS011;22761;51.542;16.450;2022-10-26T14:42:53;5.40;;;2.00;;
36817;SDS011;22761;51.542;16.450;2022-10-26T14:48:00;2.67;;;1.50;;
36817;SDS011;22761;51.542;16.450;2022-10-26T14:50:29;3.35;;;1.45;;
36817;SDS011;22761;51.542;16.450;2022-10-26T14:53:20;4.12;;;1.55;;
36817;SDS011;22761;51.542;16.450;2022-10-26T14:55:51;3.92;;;1.60;;
36817;SDS011;22761;51.542;16.450;2022-10-26T14:58:25;4.53;;;1.60;;
36817;SDS011;22761;51.542;16.450;2022-10-26T15:01:13;3.55;;;1.80;;
36817;SDS011;22761;51.542;16.450;2022-10-26T15:03:44;4.80;;;1.52;;
36817;SDS011;22761;51.542;16.450;2022-10-26T15:06:28;3.90;;;1.67;;
36817;SDS011;22761;51.542;16.450;2022-10-26T15:08:59;5.42;;;1.62;;
36817;SDS011;22761;51.542;16.450;2022-10-26T15:11:30;3.80;;;1.30;;
36817;SDS011;22761;51.542;16.450;2022-10-26T15:16:33;3.25;;;1.52;;
36817;SDS011;22761;51.542;16.450;2022-10-26T15:21:38;4.35;;;1.50;;
36817;SDS011;22761;51.542;16.450;2022-10-26T15:24:28;4.75;;;1.22;;
36817;SDS011;22761;51.542;16.450;2022-10-26T15:26:59;3.80;;;1.20;;
36817;SDS011;22761;51.542;16.450;2022-10-26T15:29:37;4.12;;;1.87;;
36817;SDS011;22761;51.542;16.450;2022-10-26T15:37:51;4.40;;;1.30;;
36817;SDS011;22761;51.542;16.450;2022-10-26T15:40:20;3.33;;;1.45;;
36817;SDS011;22761;51.542;16.450;2022-10-26T15:42:51;4.65;;;1.30;;
36817;SDS011;22761;51.542;16.450;2022-10-26T15:45:20;9.53;;;2.47;;
36817;SDS011;22761;51.542;16.450;2022-10-26T15:47:52;6.62;;;1.70;;
36817;SDS011;22761;51.542;16.450;2022-10-26T15:50:22;8.03;;;1.92;;
36817;SDS011;22761;51.542;16.450;2022-10-26T15:52:59;5.40;;;1.72;;
36817;SDS011;22761;51.542;16.450;2022-10-26T15:55:30;3.40;;;1.37;;
36817;SDS011;22761;51.542;16.450;2022-10-26T15:57:58;6.20;;;1.60;;
36817;SDS011;22761;51.542;16.450;2022-10-26T16:00:25;3.05;;;1.70;;
36817;SDS011;22761;51.542;16.450;2022-10-26T16:02:52;4.12;;;1.90;;
36817;SDS011;22761;51.542;16.450;2022-10-26T16:05:19;9.30;;;1.90;;
36817;SDS011;22761;51.542;16.450;2022-10-26T16:07:46;6.28;;;1.80;;
36817;SDS011;22761;51.542;16.450;2022-10-26T16:10:16;2.87;;;1.62;;
36817;SDS011;22761;51.542;16.450;2022-10-26T16:12:50;5.45;;;2.00;;
36817;SDS011;22761;51.542;16.450;2022-10-26T16:15:23;5.75;;;1.87;;
36817;SDS011;22761;51.542;16.450;2022-10-26T16:17:51;4.60;;;1.98;;
36817;SDS011;22761;51.542;16.450;2022-10-26T16:20:19;5.55;;;2.60;;
36817;SDS011;22761;51.542;16.450;2022-10-26T16:22:49;5.95;;;2.60;;
36817;SDS011;22761;51.542;16.450;2022-10-26T16:25:22;8.70;;;3.33;;
36817;SDS011;22761;51.542;16.450;2022-10-26T16:27:52;5.83;;;2.67;;
36817;SDS011;22761;51.542;16.450;2022-10-26T16:30:21;5.87;;;2.77;;
36817;SDS011;22761;51.542;16.450;2022-10-26T16:32:48;7.85;;;3.15;;
36817;SDS011;22761;51.542;16.450;2022-10-26T16:35:17;6.87;;;3.02;;
36817;SDS011;22761;51.542;16.450;2022-10-26T16:37:44;6.05;;;2.90;;
36817;SDS011;22761;51.542;16.450;2022-10-26T16:40:13;5.95;;;3.10;;
36817;SDS011;22761;51.542;16.450;2022-10-26T16:42:40;5.62;;;2.67;;
36817;SDS011;22761;51.542;16.450;2022-10-26T16:45:10;8.43;;;3.27;;
36817;SDS011;22761;51.542;16.450;2022-10-26T16:47:40;4.85;;;2.85;;
36817;SDS011;22761;51.542;16.450;2022-10-26T16:50:09;9.25;;;2.98;;
36817;SDS011;22761;51.542;16.450;2022-10-26T16:52:38;5.92;;;2.92;;
36817;SDS011;22761;51.542;16.450;2022-10-26T16:55:07;9.08;;;3.55;;
36817;SDS011;22761;51.542;16.450;2022-10-26T16:57:35;6.12;;;3.25;;
36817;SDS011;22761;51.542;16.450;2022-10-26T17:00:04;7.95;;;3.00;;
36817;SDS011;22761;51.542;16.450;2022-10-26T17:02:33;6.03;;;2.95;;
36817;SDS011;22761;51.542;16.450;2022-10-26T17:05:14;6.58;;;3.45;;
36817;SDS011;22761;51.542;16.450;2022-10-26T17:07:41;5.90;;;2.90;;
36817;SDS011;22761;51.542;16.450;2022-10-26T17:10:09;6.85;;;3.58;;
36817;SDS011;22761;51.542;16.450;2022-10-26T17:12:36;4.65;;;3.00;;
36817;SDS011;22761;51.542;16.450;2022-10-26T17:15:04;5.30;;;3.35;;
36817;SDS011;22761;51.542;16.450;2022-10-26T17:17:33;7.87;;;3.80;;
36817;SDS011;22761;51.542;16.450;2022-10-26T17:20:01;7.53;;;4.08;;
36817;SDS011;22761;51.542;16.450;2022-10-26T17:22:29;8.70;;;4.60;;
36817;SDS011;22761;51.542;16.450;2022-10-26T17:24:56;10.97;;;5.33;;
36817;SDS011;22761;51.542;16.450;2022-10-26T17:27:24;11.30;;;6.30;;
36817;SDS011;22761;51.542;16.450;2022-10-26T17:29:51;11.63;;;5.72;;
36817;SDS011;22761;51.542;16.450;2022-10-26T17:32:19;7.93;;;6.10;;
36817;SDS011;22761;51.542;16.450;2022-10-26T17:34:47;11.83;;;7.40;;
36817;SDS011;22761;51.542;16.450;2022-10-26T17:37:15;10.17;;;7.00;;
36817;SDS011;22761;51.542;16.450;2022-10-26T17:39:42;12.23;;;7.30;;
36817;SDS011;22761;51.542;16.450;2022-10-26T17:42:10;9.97;;;6.77;;
36817;SDS011;22761;51.542;16.450;2022-10-26T17:44:39;11.80;;;7.53;;
36817;SDS011;22761;51.542;16.450;2022-10-26T17:47:06;11.83;;;6.53;;
36817;SDS011;22761;51.542;16.450;2022-10-26T17:49:35;9.10;;;5.87;;
36817;SDS011;22761;51.542;16.450;2022-10-26T17:52:04;11.83;;;6.83;;
36817;SDS011;22761;51.542;16.450;2022-10-26T17:54:32;10.50;;;6.47;;
36817;SDS011;22761;51.542;16.450;2022-10-26T17:57:00;10.90;;;5.87;;
36817;SDS011;22761;51.542;16.450;2022-10-26T17:59:28;9.00;;;6.13;;